首页
METAR-TAF:

METAR-TAF

机场 :

Hanford, 加利福尼亚州, 美国

纬度: 36-19-07N, 经度: 119-37-44W, 海拔: 74米

当前天气观测

该预报发布于56分钟前的14:53 UTC
风速4节,风向
温度 27°C
湿度 42%
气压 1012 hPa
能見度: 16.1公里
天空无云

METAR: KHJO 241453Z AUTO 17004KT 10SM CLR 27/13 A2989 RMK AO2 SLP121 T02670128 51011

时间: 08:49 (15:49 UTC)


TAF: 丢失

超过4000个机场的气象观测和天气预报(METAR&TAF报告)。

可查询的气象台以黄色和红色小点在地图上表示。

将鼠标移到小点上方,可查看气象台名称。

然后点击查看天气观测和预报。

如需切换地图:点击带黑十字的绿色按钮放大地图;点击带横线的绿色按钮缩小地图;或者点击绿色箭头查看邻近地区的地图。


METAR-TAF: